Time;durP1;ratioP1;P1;durP2;ratioP2;P2;SDS_P1;SDS_P2;PMS_P1;PMS_P2;Temp;Humidity;BMP_temperature;BMP_pressure;BME280_temperature;BME280_humidity;BME280_pressure;Samples;Min_cycle;Max_cycle;Signal;HPM_P1;HPM_P2
2021/12/10 00:02:31;;;;;;;11.05;3.42;;;3.40;99.90;;;;;;4979134;28;20023;-77
2021/12/10 00:04:57;;;;;;;9.18;1.70;;;3.50;99.90;;;;;;4996480;28;20034;-77
2021/12/10 00:07:26;;;;;;;9.32;2.53;;;3.40;99.90;;;;;;4996386;28;20045;-76
2021/12/10 00:09:58;;;;;;;12.48;3.03;;;3.40;99.90;;;;;;4997379;28;20030;-76
2021/12/10 00:12:29;;;;;;;14.77;2.88;;;3.40;99.90;;;;;;4997090;28;20100;-76
2021/12/10 00:14:55;;;;;;;11.35;2.75;;;3.40;99.90;;;;;;4978886;28;20038;-76
2021/12/10 00:17:22;;;;;;;10.57;2.70;;;3.40;99.90;;;;;;4996683;28;20027;-76
2021/12/10 00:19:51;;;;;;;12.65;3.60;;;3.40;99.90;;;;;;4996257;28;20029;-76
2021/12/10 00:22:35;;;;;;;14.80;3.67;;;3.40;99.90;;;;;;4996485;28;20049;-76
2021/12/10 00:25:02;;;;;;;12.20;3.55;;;3.40;99.90;;;;;;4996394;28;20495;-75
2021/12/10 00:27:30;;;;;;;8.63;3.47;;;3.40;99.90;;;;;;4978715;28;20033;-75
2021/12/10 00:30:06;;;;;;;7.37;2.60;;;3.40;99.90;;;;;;4979069;28;20077;-75
2021/12/10 00:32:39;;;;;;;12.80;3.38;;;3.40;99.90;;;;;;4979015;28;20053;-74
2021/12/10 00:35:16;;;;;;;12.65;3.55;;;3.40;99.90;;;;;;4979090;28;20672;-75
2021/12/10 00:37:41;;;;;;;11.18;4.35;;;3.40;99.90;;;;;;4996475;28;20065;-76
2021/12/10 00:40:10;;;;;;;14.65;4.03;;;3.50;99.90;;;;;;4995597;28;20061;-77
2021/12/10 00:42:37;;;;;;;17.58;4.80;;;3.50;99.90;;;;;;4996245;28;20026;-76
2021/12/10 00:45:06;;;;;;;11.40;3.67;;;3.50;99.90;;;;;;4996772;28;20387;-77
2021/12/10 00:47:31;;;;;;;;;;;3.50;99.90;;;;;;4978900;28;20053;-74
2021/12/10 00:49:58;;;;;;;14.73;4.65;;;3.50;99.90;;;;;;4979648;28;20362;-75
2021/12/10 00:52:25;;;;;;;12.52;4.65;;;3.60;99.90;;;;;;4996276;28;20045;-75
2021/12/10 00:54:51;;;;;;;13.40;4.43;;;3.60;99.90;;;;;;4995850;28;20104;-76
2021/12/10 00:57:17;;;;;;;11.43;5.22;;;3.50;99.90;;;;;;4996637;28;20082;-75
2021/12/10 00:59:49;;;;;;;14.05;5.22;;;3.50;99.90;;;;;;4996401;28;20022;-75
2021/12/10 01:02:18;;;;;;;12.55;5.05;;;3.60;99.90;;;;;;4978175;28;20391;-74
2021/12/10 01:04:50;;;;;;;16.75;5.43;;;3.60;99.90;;;;;;4995460;28;20029;-74
2021/12/10 01:07:20;;;;;;;15.30;5.38;;;2.50;99.90;;;;;;4995797;28;20104;-75
2021/12/10 01:09:48;;;;;;;14.93;5.70;;;3.60;99.90;;;;;;4996156;28;20027;-74
2021/12/10 01:12:29;;;;;;;20.33;6.85;;;3.60;99.90;;;;;;4978055;28;20022;-74
2021/12/10 01:28:47;;;;;;;14.93;6.40;;;3.60;99.90;;;;;;4996265;28;20482;-75
2021/12/10 01:31:13;;;;;;;15.50;5.70;;;3.60;99.90;;;;;;4995317;28;20023;-76
2021/12/10 01:33:41;;;;;;;18.05;6.15;;;3.60;99.90;;;;;;4995276;28;20056;-75
2021/12/10 01:36:08;;;;;;;10.45;4.38;;;3.60;99.90;;;;;;4977569;28;20030;-75
2021/12/10 01:38:41;;;;;;;11.75;4.85;;;3.60;99.90;;;;;;4995491;28;20049;-75
2021/12/10 01:41:10;;;;;;;15.88;5.75;;;3.60;99.90;;;;;;4994419;28;20029;-75
2021/12/10 01:43:40;;;;;;;18.33;5.65;;;3.60;99.90;;;;;;4995551;28;20442;-75
2021/12/10 01:46:19;;;;;;;21.40;6.25;;;3.50;99.90;;;;;;4977645;28;20097;-75
2021/12/10 01:48:50;;;;;;;15.82;5.13;;;3.60;99.90;;;;;;4994966;28;20027;-75
2021/12/10 01:51:18;;;;;;;10.75;4.53;;;3.50;99.90;;;;;;4994539;28;20026;-75
2021/12/10 01:53:46;;;;;;;9.82;4.43;;;3.50;99.90;;;;;;4996139;28;20478;-75
2021/12/10 01:56:17;;;;;;;13.80;4.53;;;3.50;99.90;;;;;;4994189;28;20023;-76
2021/12/10 01:58:44;;;;;;;13.35;4.07;;;3.40;99.90;;;;;;4995395;28;20472;-76
2021/12/10 02:01:13;;;;;;;8.75;4.15;;;3.30;99.90;;;;;;4976936;28;20033;-75
2021/12/10 02:03:40;;;;;;;15.70;4.35;;;3.30;99.90;;;;;;4994442;28;20027;-76
2021/12/10 02:06:09;;;;;;;16.77;4.55;;;3.30;99.90;;;;;;4976218;28;20073;-76
2021/12/10 02:08:35;;;;;;;12.45;3.70;;;3.20;99.90;;;;;;4976822;28;20076;-76
2021/12/10 02:11:03;;;;;;;6.40;3.28;;;3.20;99.90;;;;;;4994423;28;20502;-75
2021/12/10 02:13:28;;;;;;;11.43;3.00;;;3.20;99.90;;;;;;4994324;28;20113;-75
2021/12/10 02:15:54;;;;;;;9.45;3.90;;;3.20;99.90;;;;;;4976553;28;20176;-75
2021/12/10 02:18:21;;;;;;;15.68;3.90;;;3.10;99.90;;;;;;4976852;28;20017;-75
2021/12/10 02:21:12;;;;;;;11.88;3.03;;;3.10;99.90;;;;;;4994160;28;20483;-75
2021/12/10 02:23:45;;;;;;;8.80;2.25;;;3.10;99.90;;;;;;4976709;28;20502;-74
2021/12/10 02:26:14;;;;;;;14.48;2.72;;;3.10;99.90;;;;;;4976611;28;20443;-75
2021/12/10 02:28:40;;;;;;;7.03;2.10;;;3.00;99.90;;;;;;4994347;28;20054;-75
2021/12/10 02:31:07;;;;;;;15.00;3.00;;;3.00;99.90;;;;;;4976628;28;20029;-74
2021/12/10 02:33:34;;;;;;;8.38;2.20;;;3.00;99.90;;;;;;4994069;28;20014;-74
2021/12/10 02:36:00;;;;;;;11.05;2.88;;;3.00;99.90;;;;;;4993980;28;20386;-74
2021/12/10 02:38:26;;;;;;;8.68;1.58;;;3.00;99.90;;;;;;4977338;28;20100;-77
2021/12/10 02:40:54;;;;;;;8.20;3.25;;;3.00;99.90;;;;;;4994305;28;20033;-76
2021/12/10 02:43:22;;;;;;;8.18;2.40;;;3.00;99.90;;;;;;4976578;28;20022;-76
2021/12/10 02:45:51;;;;;;;9.00;2.17;;;3.00;99.90;;;;;;4976310;28;20121;-76
2021/12/10 02:48:18;;;;;;;5.38;2.47;;;3.00;99.90;;;;;;4994300;28;20038;-75
2021/12/10 02:50:45;;;;;;;9.38;2.78;;;3.00;99.90;;;;;;4994088;28;20049;-80
2021/12/10 02:53:14;;;;;;;8.05;2.40;;;3.00;99.90;;;;;;4993953;28;20026;-76
2021/12/10 02:55:40;;;;;;;6.38;1.48;;;3.00;99.90;;;;;;4993945;28;20034;-76
2021/12/10 02:58:10;;;;;;;11.25;3.10;;;3.10;99.90;;;;;;4976975;28;20023;-74
2021/12/10 03:00:52;;;;;;;12.32;2.00;;;3.10;99.90;;;;;;4994202;28;20030;-76
2021/12/10 03:03:19;;;;;;;4.55;1.63;;;3.10;99.90;;;;;;4976128;28;20025;-74
2021/12/10 03:05:44;;;;;;;7.38;2.55;;;3.10;99.90;;;;;;4993584;28;20101;-74
2021/12/10 03:08:11;;;;;;;10.50;2.47;;;3.10;99.90;;;;;;4994005;28;20478;-76
2021/12/10 03:10:38;;;;;;;9.73;1.63;;;3.10;99.90;;;;;;4993637;28;20518;-75
2021/12/10 03:13:06;;;;;;;12.50;2.53;;;3.10;99.90;;;;;;4994277;28;20031;-75
2021/12/10 03:15:32;;;;;;;7.15;2.50;;;3.10;99.90;;;;;;4993479;28;20041;-75
2021/12/10 03:18:00;;;;;;;10.65;1.55;;;3.10;99.90;;;;;;4978339;28;20035;-74
2021/12/10 03:20:29;;;;;;;10.45;1.70;;;3.10;99.90;;;;;;4979727;28;20072;-74
2021/12/10 03:23:00;;;;;;;8.63;1.70;;;3.10;99.90;;;;;;4997460;28;20028;-74
2021/12/10 03:25:26;;;;;;;9.38;1.80;;;3.20;99.90;;;;;;4996996;28;20034;-74
2021/12/10 03:27:51;;;;;;;4.57;1.30;;;3.20;99.90;;;;;;4979898;28;20026;-74
2021/12/10 03:30:22;;;;;;;5.72;1.73;;;3.20;99.90;;;;;;4997394;28;20034;-74
2021/12/10 03:32:48;;;;;;;5.05;0.90;;;3.20;99.90;;;;;;4997332;28;20037;-74
2021/12/10 03:35:23;;;;;;;9.52;1.38;;;3.20;99.90;;;;;;4997710;28;20450;-74
2021/12/10 03:37:48;;;;;;;5.90;1.15;;;3.30;99.90;;;;;;4997316;28;20018;-74
2021/12/10 03:40:17;;;;;;;7.22;1.55;;;3.30;99.90;;;;;;4997139;28;20076;-74
2021/12/10 03:42:44;;;;;;;8.07;1.60;;;3.30;99.90;;;;;;4979638;28;20120;-74
2021/12/10 03:45:12;;;;;;;3.42;0.88;;;3.30;99.90;;;;;;4979479;28;20030;-74
2021/12/10 03:47:38;;;;;;;4.78;1.02;;;3.30;99.90;;;;;;4979612;28;20022;-74
2021/12/10 03:50:06;;;;;;;8.95;1.08;;;3.40;99.90;;;;;;4996986;28;20030;-74
2021/12/10 03:52:32;;;;;;;3.42;0.68;;;3.40;99.90;;;;;;4979825;28;20113;-74
2021/12/10 03:55:00;;;;;;;10.00;0.85;;;3.40;99.90;;;;;;4997223;28;20104;-74
2021/12/10 03:57:25;;;;;;;4.82;0.90;;;3.30;99.90;;;;;;4996881;28;20467;-74
2021/12/10 03:59:51;;;;;;;7.57;0.30;;;3.40;99.90;;;;;;4997020;28;20077;-74
2021/12/10 04:02:17;;;;;;;7.75;0.43;;;3.40;99.90;;;;;;4979279;28;20034;-75
2021/12/10 04:04:46;;;;;;;6.45;0.85;;;3.40;99.90;;;;;;4979162;28;20030;-76
2021/12/10 04:07:19;;;;;;;4.80;0.93;;;3.40;99.90;;;;;;4979261;28;20116;-76
2021/12/10 04:09:45;;;;;;;4.03;0.85;;;3.50;99.90;;;;;;4996421;28;20036;-78
2021/12/10 04:12:12;;;;;;;4.10;0.85;;;3.50;99.90;;;;;;4979068;28;20030;-76
2021/12/10 04:14:39;;;;;;;12.52;1.17;;;3.50;99.90;;;;;;4995956;28;20035;-76
2021/12/10 04:17:06;;;;;;;3.20;0.45;;;3.50;99.90;;;;;;4997346;28;20022;-77
2021/12/10 04:19:33;;;;;;;6.18;0.43;;;3.50;99.90;;;;;;4996702;28;20050;-76
2021/12/10 04:22:01;;;;;;;2.28;0.40;;;3.60;99.90;;;;;;4996355;28;20530;-75
2021/12/10 04:24:30;;;;;;;3.15;0.65;;;3.60;99.90;;;;;;4996013;28;20475;-76
2021/12/10 04:26:58;;;;;;;3.60;0.60;;;3.60;99.90;;;;;;4996708;28;20379;-76
2021/12/10 04:29:24;;;;;;;8.18;0.30;;;3.70;99.90;;;;;;4978280;28;20022;-76
2021/12/10 04:31:52;;;;;;;6.97;0.88;;;3.60;99.90;;;;;;4996417;28;20490;-76
2021/12/10 04:34:19;;;;;;;7.80;0.65;;;3.70;99.90;;;;;;4996242;28;20026;-76
2021/12/10 04:36:44;;;;;;;5.18;0.88;;;3.70;99.90;;;;;;4996027;28;20118;-76
2021/12/10 04:39:11;;;;;;;2.80;0.32;;;3.70;99.90;;;;;;4995970;28;20109;-76
2021/12/10 04:41:37;;;;;;;4.38;0.25;;;3.70;99.90;;;;;;4996260;28;20088;-77
2021/12/10 04:44:04;;;;;;;7.60;0.55;;;3.80;99.90;;;;;;4978829;28;20026;-76
2021/12/10 04:46:29;;;;;;;4.80;0.45;;;3.90;99.90;;;;;;4995911;28;20084;-76
2021/12/10 04:49:00;;;;;;;3.05;0.20;;;3.80;99.90;;;;;;4978542;28;20027;-77
2021/12/10 04:51:31;;;;;;;1.98;0.43;;;3.90;99.90;;;;;;4996617;28;20050;-76
2021/12/10 04:53:58;;;;;;;4.55;0.20;;;3.80;99.90;;;;;;4995366;28;20073;-76
2021/12/10 04:56:25;;;;;;;9.95;0.47;;;3.80;99.90;;;;;;4978177;28;20030;-75
2021/12/10 04:58:51;;;;;;;3.42;0.22;;;3.80;99.90;;;;;;4995726;28;20030;-75
2021/12/10 05:01:16;;;;;;;2.30;0.13;;;3.80;99.90;;;;;;4978390;28;20084;-74
2021/12/10 05:03:42;;;;;;;4.00;0.40;;;3.80;99.90;;;;;;4995947;28;20109;-74
2021/12/10 05:06:08;;;;;;;4.68;0.30;;;3.90;99.90;;;;;;4995334;28;20093;-74
2021/12/10 05:08:38;;;;;;;1.27;0.40;;;3.90;99.90;;;;;;4995875;28;20402;-74
2021/12/10 05:11:06;;;;;;;4.97;0.38;;;3.80;99.90;;;;;;4995863;28;20567;-74
2021/12/10 05:13:32;;;;;;;0.80;0.28;;;3.90;99.90;;;;;;4977860;28;20030;-74
2021/12/10 05:15:58;;;;;;;2.97;0.25;;;3.80;99.90;;;;;;4995084;28;20395;-74
2021/12/10 05:18:31;;;;;;;5.15;0.60;;;3.80;99.90;;;;;;4995050;28;20018;-74
2021/12/10 05:20:58;;;;;;;2.90;0.15;;;3.80;99.90;;;;;;4995671;28;20026;-74
2021/12/10 05:23:23;;;;;;;1.42;0.20;;;3.80;99.90;;;;;;4995310;28;20049;-74
2021/12/10 05:25:50;;;;;;;2.40;0.35;;;3.80;99.90;;;;;;4994955;28;20030;-73
2021/12/10 05:28:16;;;;;;;1.48;0.10;;;3.70;99.90;;;;;;4995006;28;20030;-74
2021/12/10 05:30:44;;;;;;;8.32;0.73;;;3.00;99.90;;;;;;4995191;28;20097;-75
2021/12/10 05:33:15;;;;;;;1.83;0.20;;;3.70;99.90;;;;;;4994838;28;20022;-75
2021/12/10 05:35:41;;;;;;;2.67;0.35;;;3.60;99.90;;;;;;4981304;28;20022;-75
2021/12/10 05:38:07;;;;;;;7.28;0.68;;;3.60;99.90;;;;;;4975667;28;20035;-75
2021/12/10 05:40:33;;;;;;;3.13;0.17;;;3.60;99.90;;;;;;4987349;28;20026;-75
2021/12/10 05:42:59;;;;;;;6.20;0.57;;;3.60;99.90;;;;;;4977503;28;20026;-75
2021/12/10 05:45:25;;;;;;;1.85;0.15;;;3.60;99.90;;;;;;4994960;28;20117;-75
2021/12/10 05:47:51;;;;;;;5.10;0.55;;;3.60;99.90;;;;;;4994853;28;20022;-75
2021/12/10 05:50:21;;;;;;;5.03;0.10;;;3.50;99.90;;;;;;4994903;28;20046;-75
2021/12/10 05:52:46;;;;;;;2.65;0.17;;;3.60;99.90;;;;;;4977461;28;20053;-75
2021/12/10 05:55:13;;;;;;;3.97;0.00;;;3.60;99.90;;;;;;4994327;28;20026;-75
2021/12/10 05:57:39;;;;;;;4.38;0.57;;;3.60;99.90;;;;;;4994464;28;20026;-75
2021/12/10 06:00:09;;;;;;;7.35;0.45;;;3.60;99.90;;;;;;4977681;28;20031;-75
2021/12/10 06:02:34;;;;;;;8.13;1.00;;;3.60;99.90;;;;;;4994818;28;20049;-74
2021/12/10 06:05:00;;;;;;;3.70;0.13;;;3.60;99.90;;;;;;4994247;28;20483;-73
2021/12/10 06:07:26;;;;;;;0.88;0.13;;;3.60;99.90;;;;;;4994505;28;20026;-73
2021/12/10 06:09:51;;;;;;;6.50;0.05;;;3.60;99.90;;;;;;4994390;28;20031;-73
2021/12/10 06:12:17;;;;;;;1.90;0.08;;;3.60;99.90;;;;;;4994192;28;20037;-74
2021/12/10 06:14:43;;;;;;;4.78;0.22;;;3.60;99.90;;;;;;4993986;28;20034;-74
2021/12/10 06:17:08;;;;;;;7.25;0.22;;;3.60;99.90;;;;;;4994650;28;20030;-74
2021/12/10 06:19:34;;;;;;;3.20;0.52;;;3.60;99.90;;;;;;4994233;28;20098;-74
2021/12/10 06:22:00;;;;;;;8.10;0.70;;;3.60;99.90;;;;;;4994199;28;20026;-76
2021/12/10 06:24:26;;;;;;;2.63;0.20;;;3.60;99.90;;;;;;4976454;28;20455;-73
2021/12/10 06:26:52;;;;;;;4.53;0.40;;;3.60;99.90;;;;;;4994195;28;20050;-76
2021/12/10 06:29:22;;;;;;;1.92;0.00;;;3.60;99.90;;;;;;4993913;28;20029;-74
2021/12/10 06:31:48;;;;;;;8.30;0.82;;;3.60;99.90;;;;;;4994358;28;20022;-74
2021/12/10 06:34:14;;;;;;;6.10;0.25;;;3.60;99.90;;;;;;4993722;28;20041;-74
2021/12/10 06:36:41;;;;;;;6.72;0.40;;;3.70;99.90;;;;;;4994256;28;20029;-74
2021/12/10 06:39:08;;;;;;;13.00;0.45;;;3.70;99.90;;;;;;4993723;28;20027;-73
2021/12/10 06:41:34;;;;;;;4.88;0.68;;;3.70;99.90;;;;;;4993896;28;20029;-75
2021/12/10 06:44:04;;;;;;;2.17;0.10;;;3.70;99.90;;;;;;4994024;28;20034;-75
2021/12/10 06:46:31;;;;;;;2.28;0.30;;;3.70;99.90;;;;;;4976557;28;20049;-74
2021/12/10 06:48:57;;;;;;;4.88;0.10;;;3.70;99.90;;;;;;4976205;28;20058;-74
2021/12/10 06:51:22;;;;;;;9.50;0.35;;;3.70;99.90;;;;;;4993875;28;20109;-75
2021/12/10 06:53:49;;;;;;;2.78;0.10;;;3.80;99.90;;;;;;4980049;28;20026;-75
2021/12/10 06:56:16;;;;;;;4.97;0.43;;;3.80;99.90;;;;;;4980025;28;20030;-75
2021/12/10 06:58:43;;;;;;;1.73;0.20;;;3.80;99.90;;;;;;4998044;28;20054;-76
2021/12/10 07:01:38;;;;;;;6.72;0.57;;;3.80;99.90;;;;;;4980228;28;20026;-74
2021/12/10 07:04:09;;;;;;;3.70;0.00;;;3.80;99.90;;;;;;4995969;28;20034;-74
2021/12/10 07:06:36;;;;;;;2.92;0.50;;;3.70;99.90;;;;;;4980310;28;20037;-74
2021/12/10 07:09:13;;;;;;;6.60;0.13;;;3.70;99.90;;;;;;4997564;28;20546;-75
2021/12/10 07:11:39;;;;;;;3.90;0.35;;;3.70;99.90;;;;;;4997808;28;20022;-75
2021/12/10 07:14:05;;;;;;;3.67;0.75;;;3.70;99.90;;;;;;4997482;28;20089;-75
2021/12/10 07:16:31;;;;;;;6.50;0.80;;;3.70;99.90;;;;;;4996934;28;20483;-75
2021/12/10 07:19:00;;;;;;;3.65;0.45;;;3.80;99.90;;;;;;4996911;28;20025;-75
2021/12/10 07:21:29;;;;;;;4.15;0.03;;;3.70;99.90;;;;;;4997926;28;20141;-75
2021/12/10 07:23:55;;;;;;;3.33;0.52;;;3.70;99.90;;;;;;4997780;28;20018;-75
2021/12/10 07:26:21;;;;;;;6.03;1.17;;;3.80;99.90;;;;;;4980098;28;20030;-75
2021/12/10 07:28:46;;;;;;;4.40;0.10;;;3.70;99.90;;;;;;4998021;28;20122;-75
2021/12/10 07:31:13;;;;;;;2.65;0.15;;;3.80;99.90;;;;;;4996684;28;20119;-75
2021/12/10 07:33:40;;;;;;;9.05;0.45;;;3.80;99.90;;;;;;4997315;28;20027;-75
2021/12/10 07:36:06;;;;;;;7.70;0.95;;;3.80;99.90;;;;;;4979746;28;20027;-75
2021/12/10 07:38:32;;;;;;;1.88;0.47;;;3.80;99.90;;;;;;4975673;28;20029;-76
2021/12/10 07:40:58;;;;;;;7.78;0.88;;;3.80;99.90;;;;;;4996857;28;20026;-75
2021/12/10 07:43:24;;;;;;;4.90;0.28;;;3.80;99.90;;;;;;4997151;28;20496;-75
2021/12/10 07:45:52;;;;;;;4.85;0.57;;;3.80;99.90;;;;;;4997106;28;20038;-75
2021/12/10 07:48:20;;;;;;;7.63;0.13;;;3.80;99.90;;;;;;4997268;28;20034;-75
2021/12/10 07:50:58;;;;;;;9.23;0.63;;;3.90;99.90;;;;;;4979437;28;20129;-76
2021/12/10 07:53:26;;;;;;;11.57;0.82;;;3.90;99.90;;;;;;4996945;28;20034;-75
2021/12/10 07:55:52;;;;;;;5.88;0.10;;;3.90;99.90;;;;;;4996904;28;20030;-76
2021/12/10 07:58:18;;;;;;;5.00;0.38;;;3.90;99.90;;;;;;4979257;28;20041;-75
2021/12/10 08:00:47;;;;;;;4.97;1.02;;;3.80;99.90;;;;;;4996607;28;20023;-77
2021/12/10 08:03:14;;;;;;;1.58;0.20;;;3.90;99.90;;;;;;4996292;28;20025;-76
2021/12/10 08:05:40;;;;;;;3.92;0.20;;;3.90;99.90;;;;;;4996709;28;20035;-78
2021/12/10 08:08:07;;;;;;;5.70;0.32;;;3.90;99.90;;;;;;4998509;28;20034;-76
2021/12/10 08:10:34;;;;;;;12.43;0.40;;;4.00;99.90;;;;;;4997446;28;20062;-75
2021/12/10 08:13:01;;;;;;;4.65;0.17;;;4.00;99.90;;;;;;4993158;28;20030;-75
2021/12/10 08:15:27;;;;;;;6.32;0.77;;;4.10;99.90;;;;;;4996605;28;20034;-76
2021/12/10 08:17:53;;;;;;;4.53;0.28;;;4.10;99.90;;;;;;4997017;28;20030;-76
2021/12/10 08:20:22;;;;;;;5.10;0.65;;;4.10;99.90;;;;;;4977562;28;20018;-76
2021/12/10 08:22:48;;;;;;;;;;;4.10;99.90;;;;;;4996170;28;20088;-75
2021/12/10 08:25:14;;;;;;;3.47;0.40;;;4.10;99.90;;;;;;4996326;28;20359;-75
2021/12/10 08:27:40;;;;;;;4.63;1.15;;;4.20;99.90;;;;;;4996717;28;20391;-75
2021/12/10 08:30:09;;;;;;;4.68;0.52;;;4.20;99.90;;;;;;4996277;28;20110;-76
2021/12/10 08:32:35;;;;;;;7.20;0.55;;;4.20;99.90;;;;;;4996440;28;20393;-76
2021/12/10 08:35:03;;;;;;;1.90;0.10;;;4.20;99.90;;;;;;4996542;28;20034;-76
2021/12/10 08:37:29;;;;;;;4.43;0.20;;;4.10;99.90;;;;;;4996038;28;20026;-76
2021/12/10 08:39:55;;;;;;;5.45;0.50;;;4.20;99.90;;;;;;4978444;28;20030;-76
2021/12/10 08:42:21;;;;;;;5.57;0.52;;;4.20;99.90;;;;;;4995958;28;20033;-76
2021/12/10 08:44:47;;;;;;;7.50;0.55;;;4.20;99.90;;;;;;4996054;28;20026;-76
2021/12/10 08:47:14;;;;;;;2.50;0.30;;;4.20;99.90;;;;;;4978506;28;20033;-76
2021/12/10 08:49:41;;;;;;;3.72;0.10;;;4.30;99.90;;;;;;4978366;28;20030;-76
2021/12/10 08:52:08;;;;;;;6.18;0.65;;;4.20;99.90;;;;;;4995829;28;20502;-76
2021/12/10 08:54:34;;;;;;;5.00;0.20;;;4.30;99.90;;;;;;4995894;28;20050;-76
2021/12/10 08:57:00;;;;;;;6.32;1.00;;;4.30;99.90;;;;;;4978171;28;20053;-76
2021/12/10 08:59:26;;;;;;;6.30;0.85;;;4.40;99.90;;;;;;4977962;28;20050;-76
2021/12/10 09:01:57;;;;;;;4.03;0.32;;;4.40;99.90;;;;;;4995993;28;20471;-77
2021/12/10 09:04:23;;;;;;;3.92;0.20;;;4.40;99.90;;;;;;4978162;28;20026;-75
2021/12/10 09:06:56;;;;;;;9.57;0.93;;;4.40;99.90;;;;;;4995476;28;20418;-75
2021/12/10 09:09:23;;;;;;;4.75;0.63;;;4.40;99.90;;;;;;4995173;28;20034;-75
2021/12/10 09:11:55;;;;;;;8.90;0.30;;;4.50;99.90;;;;;;4995245;28;20092;-75
2021/12/10 09:14:26;;;;;;;5.53;0.20;;;4.50;99.90;;;;;;4994726;28;20038;-76
2021/12/10 09:16:52;;;;;;;3.25;0.25;;;4.50;99.90;;;;;;4977686;28;20038;-76
2021/12/10 09:19:19;;;;;;;7.60;0.52;;;4.50;99.90;;;;;;4977474;28;20493;-76
2021/12/10 09:21:45;;;;;;;3.40;0.20;;;4.50;99.90;;;;;;4977647;28;20014;-75
2021/12/10 09:24:13;;;;;;;8.00;0.35;;;4.50;99.90;;;;;;4977649;28;20058;-75
2021/12/10 09:26:42;;;;;;;4.28;0.30;;;4.60;99.90;;;;;;4994909;28;20037;-75
2021/12/10 09:29:12;;;;;;;4.20;0.32;;;4.60;99.90;;;;;;4977313;28;20033;-76
2021/12/10 09:31:39;;;;;;;8.63;0.50;;;4.60;99.90;;;;;;4977441;28;20056;-75
2021/12/10 09:34:06;;;;;;;7.68;0.80;;;4.60;99.90;;;;;;4977376;28;20053;-75
2021/12/10 09:36:32;;;;;;;2.70;0.52;;;4.60;99.90;;;;;;4994281;28;20045;-75
2021/12/10 09:38:58;;;;;;;6.65;0.88;;;4.60;99.90;;;;;;4994574;28;20022;-76
2021/12/10 09:41:25;;;;;;;4.03;0.63;;;4.60;99.90;;;;;;4994802;28;20061;-76
2021/12/10 09:43:53;;;;;;;5.70;0.40;;;4.50;99.90;;;;;;4977263;28;20049;-75
2021/12/10 09:46:19;;;;;;;4.88;0.75;;;4.60;99.90;;;;;;4994438;28;20030;-75
2021/12/10 09:48:46;;;;;;;7.40;1.15;;;4.60;99.90;;;;;;4994783;28;20109;-76
2021/12/10 09:51:16;;;;;;;1.85;0.47;;;4.60;99.90;;;;;;4994773;28;20394;-75
2021/12/10 09:53:46;;;;;;;2.92;0.40;;;4.60;99.90;;;;;;4976750;28;20077;-75
2021/12/10 09:56:14;;;;;;;4.13;0.60;;;4.50;99.90;;;;;;4994164;28;20038;-75
2021/12/10 09:58:40;;;;;;;6.55;0.50;;;4.50;99.90;;;;;;4994328;28;20033;-76
2021/12/10 10:01:13;;;;;;;6.07;0.57;;;4.50;99.90;;;;;;4977094;28;20026;-75
2021/12/10 10:03:43;;;;;;;7.03;0.50;;;4.50;99.90;;;;;;4993652;28;20026;-76
2021/12/10 10:06:10;;;;;;;8.52;0.50;;;4.50;99.90;;;;;;4994469;28;20076;-76
2021/12/10 10:08:36;;;;;;;6.80;1.23;;;4.50;99.90;;;;;;4993755;28;20026;-76
2021/12/10 10:11:17;;;;;;;6.10;0.40;;;4.50;99.90;;;;;;4994339;28;20097;-76
2021/12/10 10:13:46;;;;;;;3.97;0.45;;;4.50;99.90;;;;;;4975910;28;20023;-74
2021/12/10 10:16:13;;;;;;;3.97;0.30;;;4.50;99.90;;;;;;4993653;28;20034;-75
2021/12/10 10:18:40;;;;;;;4.43;0.43;;;4.50;99.90;;;;;;4975607;28;20081;-75
2021/12/10 10:21:15;;;;;;;7.57;1.25;;;4.50;99.90;;;;;;4993871;28;20019;-75
2021/12/10 10:23:42;;;;;;;5.70;1.00;;;4.50;99.90;;;;;;4993449;28;20058;-75
2021/12/10 10:26:12;;;;;;;1.80;0.50;;;4.50;99.90;;;;;;4976130;28;20030;-75
2021/12/10 10:28:39;;;;;;;3.75;0.30;;;4.60;99.90;;;;;;4976202;28;20018;-75
2021/12/10 10:31:12;;;;;;;3.05;0.32;;;4.60;99.90;;;;;;4976535;28;20034;-75
2021/12/10 10:33:39;;;;;;;11.70;1.25;;;4.60;99.90;;;;;;4994029;28;20057;-76
2021/12/10 10:36:18;;;;;;;7.55;0.40;;;4.60;99.90;;;;;;4976360;28;20109;-76
2021/12/10 10:38:47;;;;;;;4.47;0.60;;;4.70;99.90;;;;;;4976588;28;20452;-75
2021/12/10 10:41:14;;;;;;;1.90;0.50;;;4.70;99.90;;;;;;4976494;28;20125;-75
2021/12/10 10:43:40;;;;;;;5.55;0.40;;;4.70;99.90;;;;;;4976130;28;20022;-75
2021/12/10 10:46:06;;;;;;;5.07;0.20;;;4.70;99.90;;;;;;4977039;28;20041;-76
2021/12/10 10:48:32;;;;;;;8.48;0.40;;;4.80;99.90;;;;;;4993856;28;20022;-75
2021/12/10 10:51:04;;;;;;;7.72;0.45;;;4.80;99.90;;;;;;4993855;28;20027;-75
2021/12/10 10:53:37;;;;;;;8.40;0.65;;;4.80;99.90;;;;;;4994263;28;20494;-75
2021/12/10 10:56:10;;;;;;;8.13;0.90;;;4.80;99.90;;;;;;4976226;28;20364;-75
2021/12/10 10:58:45;;;;;;;3.28;0.57;;;4.90;99.90;;;;;;4976823;28;20034;-75
2021/12/10 11:01:23;;;;;;;3.67;0.52;;;5.00;99.90;;;;;;4993751;28;20027;-75
2021/12/10 11:03:57;;;;;;;9.70;0.35;;;4.90;99.90;;;;;;4976492;28;20410;-75
2021/12/10 11:06:50;;;;;;;5.95;0.28;;;5.00;99.90;;;;;;4976539;28;20034;-76
2021/12/10 11:09:29;;;;;;;7.45;0.65;;;5.00;99.90;;;;;;4993878;28;20018;-76
2021/12/10 11:11:56;;;;;;;;;;;5.10;99.90;;;;;;4977237;28;20121;-76
2021/12/10 11:14:40;;;;;;;4.53;0.43;;;5.10;99.90;;;;;;4993619;28;19910;-76
2021/12/10 11:17:10;;;;;;;5.18;0.30;;;5.20;99.90;;;;;;4993815;28;20053;-75
2021/12/10 11:19:36;;;;;;;3.42;0.40;;;5.30;99.90;;;;;;4993661;28;20084;-75
2021/12/10 11:22:11;;;;;;;6.25;0.57;;;5.30;99.90;;;;;;4994198;28;20109;-75
2021/12/10 11:24:46;;;;;;;8.48;1.25;;;5.40;99.90;;;;;;4976123;28;20085;-74
2021/12/10 11:27:19;;;;;;;6.97;0.75;;;5.40;99.90;;;;;;4993523;28;20027;-76
2021/12/10 11:30:02;;;;;;;8.07;0.88;;;5.40;99.90;;;;;;4975945;28;20027;-73
2021/12/10 11:32:34;;;;;;;13.20;1.15;;;5.40;99.90;;;;;;4993407;28;20042;-74
2021/12/10 11:35:23;;;;;;;4.60;0.80;;;5.40;99.90;;;;;;4975993;28;20034;-75
2021/12/10 11:37:58;;;;;;;3.83;1.08;;;5.40;99.90;;;;;;4975973;28;20018;-75
2021/12/10 11:40:40;;;;;;;5.38;0.55;;;5.40;99.90;;;;;;4996932;28;20069;-74
2021/12/10 11:43:32;;;;;;;10.93;1.55;;;5.40;99.90;;;;;;4996988;28;20057;-74
2021/12/10 11:46:05;;;;;;;5.35;0.60;;;5.40;99.90;;;;;;4996816;28;20038;-74
2021/12/10 11:48:38;;;;;;;6.30;0.47;;;5.30;99.90;;;;;;4996400;28;20026;-75
2021/12/10 11:51:11;;;;;;;8.02;3.25;;;5.40;99.90;;;;;;4996986;28;20487;-73
2021/12/10 11:53:42;;;;;;;4.15;0.93;;;5.40;99.90;;;;;;4979411;28;20030;-74
2021/12/10 11:56:35;;;;;;;5.00;0.68;;;5.40;99.90;;;;;;4979159;28;20062;-74
2021/12/10 11:59:27;;;;;;;5.57;0.65;;;5.40;99.90;;;;;;4996737;28;20106;-74
2021/12/10 12:02:07;;;;;;;1.85;0.45;;;5.50;99.90;;;;;;4996118;28;20042;-75
2021/12/10 12:04:33;;;;;;;4.03;0.60;;;5.50;99.90;;;;;;4996949;28;20153;-74
2021/12/10 12:07:26;;;;;;;4.65;0.98;;;5.40;99.90;;;;;;4996166;28;20502;-74
2021/12/10 12:10:23;;;;;;;3.25;0.60;;;5.40;99.90;;;;;;4996033;28;20110;-74
2021/12/10 12:15:56;;;;;;;3.28;0.43;;;5.50;99.90;;;;;;4996380;28;20106;-73
2021/12/10 12:18:35;;;;;;;8.82;0.75;;;5.50;99.90;;;;;;4978987;28;20045;-74
2021/12/10 12:26:50;;;;;;;2.90;0.30;;;5.50;99.90;;;;;;4996808;28;20526;-74
2021/12/10 12:29:18;;;;;;;2.13;0.35;;;5.40;99.90;;;;;;4996073;28;20034;-73
2021/12/10 12:31:53;;;;;;;3.10;0.25;;;5.40;99.90;;;;;;4978638;28;20022;-74
2021/12/10 12:34:28;;;;;;;6.47;0.63;;;5.50;99.90;;;;;;4978757;28;20525;-74
2021/12/10 12:36:56;;;;;;;5.40;0.30;;;5.50;99.90;;;;;;4978644;28;20438;-74
2021/12/10 12:39:38;;;;;;;1.05;0.20;;;5.50;99.90;;;;;;4996319;28;20505;-74
2021/12/10 12:42:19;;;;;;;3.78;0.47;;;5.50;99.90;;;;;;4995360;28;20030;-74
2021/12/10 12:44:51;;;;;;;5.43;0.60;;;5.50;99.90;;;;;;4996250;28;20022;-74
2021/12/10 12:47:32;;;;;;;2.78;0.17;;;5.50;99.90;;;;;;4978191;28;20022;-74
2021/12/10 12:50:27;;;;;;;2.58;0.65;;;5.50;99.90;;;;;;4977517;28;20034;-74
2021/12/10 12:53:05;;;;;;;3.88;0.30;;;5.60;99.90;;;;;;4995817;28;20026;-74
2021/12/10 12:55:46;;;;;;;2.60;0.30;;;5.50;99.90;;;;;;4995733;28;20030;-74
2021/12/10 12:58:14;;;;;;;13.00;0.63;;;5.60;99.90;;;;;;4978536;28;20058;-74
2021/12/10 13:01:02;;;;;;;8.18;0.45;;;5.60;99.90;;;;;;4978073;28;20041;-74
2021/12/10 13:03:43;;;;;;;4.57;0.40;;;5.60;99.90;;;;;;4978116;28;20085;-74
2021/12/10 13:06:32;;;;;;;3.58;0.05;;;5.60;99.90;;;;;;4995620;28;20110;-76
2021/12/10 13:09:12;;;;;;;8.00;0.38;;;5.70;99.90;;;;;;4978021;28;20046;-74
2021/12/10 13:11:57;;;;;;;8.07;0.50;;;5.70;99.90;;;;;;4995428;28;20026;-75
2021/12/10 13:14:32;;;;;;;2.35;0.52;;;5.70;99.90;;;;;;4995035;28;20026;-76
2021/12/10 13:17:09;;;;;;;4.47;0.40;;;5.70;99.90;;;;;;4977805;28;20085;-75
2021/12/10 13:19:35;;;;;;;5.55;0.20;;;5.70;99.90;;;;;;4995259;28;20484;-75
2021/12/10 13:22:06;;;;;;;6.43;1.00;;;5.70;99.90;;;;;;4994948;28;20121;-75
2021/12/10 13:24:32;;;;;;;2.50;0.50;;;5.70;99.90;;;;;;4995033;28;20026;-75
2021/12/10 13:26:59;;;;;;;3.22;0.47;;;5.70;99.90;;;;;;4995057;28;20037;-75
2021/12/10 13:29:27;;;;;;;4.22;0.30;;;5.70;99.90;;;;;;4994856;28;20038;-75
2021/12/10 13:31:53;;;;;;;2.13;0.40;;;5.70;99.90;;;;;;4994948;28;20036;-75